createdAt,value
2022-08-07T00:02:37.154Z,100.00
2022-08-07T00:04:16.028Z,100.00
2022-08-07T00:06:51.311Z,100.00
2022-08-07T00:09:21.397Z,100.00
2022-08-07T00:11:55.288Z,100.00
2022-08-07T00:14:25.325Z,100.00
2022-08-07T00:16:52.597Z,100.00
2022-08-07T00:19:21.730Z,100.00
2022-08-07T00:21:56.944Z,100.00
2022-08-07T00:24:28.618Z,100.00
2022-08-07T00:27:07.157Z,100.00
2022-08-07T00:29:36.910Z,100.00
2022-08-07T00:32:05.821Z,100.00
2022-08-07T00:34:33.600Z,100.00
2022-08-07T00:37:04.920Z,100.00
2022-08-07T00:39:32.182Z,100.00
2022-08-07T00:42:02.096Z,100.00
2022-08-07T00:44:33.864Z,100.00
2022-08-07T00:47:06.474Z,100.00
2022-08-07T00:50:20.698Z,100.00
2022-08-07T00:52:29.519Z,100.00
2022-08-07T00:55:04.740Z,100.00
2022-08-07T00:57:37.803Z,100.00
2022-08-07T01:00:11.272Z,100.00
2022-08-07T01:02:37.889Z,100.00
2022-08-07T01:05:18.734Z,100.00
2022-08-07T01:07:46.390Z,100.00
2022-08-07T01:10:18.295Z,100.00
2022-08-07T01:12:54.130Z,100.00
2022-08-07T01:15:23.333Z,100.00
2022-08-07T01:18:10.045Z,100.00
2022-08-07T01:23:39.448Z,100.00
2022-08-07T01:26:13.452Z,100.00
2022-08-07T01:28:54.143Z,100.00
2022-08-07T01:31:21.858Z,100.00
2022-08-07T01:33:55.119Z,100.00
2022-08-07T01:36:33.292Z,100.00
2022-08-07T01:39:01.180Z,100.00
2022-08-07T01:41:28.238Z,100.00
2022-08-07T01:43:55.272Z,100.00
2022-08-07T01:46:22.129Z,100.00
2022-08-07T01:48:50.517Z,100.00
2022-08-07T01:52:02.502Z,100.00
2022-08-07T01:54:21.934Z,100.00
2022-08-07T01:57:04.535Z,100.00
2022-08-07T01:59:45.223Z,100.00
2022-08-07T02:02:32.523Z,100.00
2022-08-07T02:05:07.668Z,100.00
2022-08-07T02:07:54.767Z,100.00
2022-08-07T02:10:26.922Z,100.00
2022-08-07T02:12:59.752Z,100.00
2022-08-07T02:15:29.239Z,100.00
2022-08-07T02:17:58.153Z,100.00
2022-08-07T02:20:27.450Z,100.00
2022-08-07T02:22:59.555Z,100.00
2022-08-07T02:26:30.800Z,100.00
2022-08-07T02:28:25.449Z,100.00
2022-08-07T02:30:55.968Z,100.00
2022-08-07T02:33:42.122Z,100.00
2022-08-07T02:36:30.301Z,100.00
2022-08-07T02:39:16.615Z,100.00
2022-08-07T02:41:50.821Z,100.00
2022-08-07T02:44:22.092Z,100.00
2022-08-07T02:46:52.789Z,100.00
2022-08-07T02:49:29.087Z,100.00
2022-08-07T02:52:12.985Z,100.00
2022-08-07T02:54:42.932Z,100.00
2022-08-07T02:57:14.087Z,100.00
2022-08-07T02:59:55.172Z,100.00
2022-08-07T03:02:28.483Z,100.00
2022-08-07T03:04:56.556Z,100.00
2022-08-07T03:08:04.917Z,100.00
2022-08-07T03:10:12.352Z,100.00
2022-08-07T03:12:41.853Z,100.00
2022-08-07T03:15:12.071Z,100.00
2022-08-07T03:17:53.920Z,100.00
2022-08-07T03:20:22.130Z,100.00
2022-08-07T03:35:18.479Z,100.00
2022-08-07T03:38:10.596Z,100.00
2022-08-07T03:40:44.237Z,100.00
2022-08-07T03:43:15.678Z,100.00
2022-08-07T03:45:48.475Z,100.00
2022-08-07T03:48:30.474Z,100.00
2022-08-07T03:51:18.290Z,100.00
2022-08-07T03:54:35.980Z,100.00
2022-08-07T03:58:35.501Z,100.00
2022-08-07T04:01:11.314Z,100.00
2022-08-07T04:03:59.292Z,100.00
2022-08-07T04:06:55.869Z,100.00
2022-08-07T04:09:50.168Z,100.00
2022-08-07T04:15:15.923Z,100.00
2022-08-07T04:18:56.671Z,100.00
2022-08-07T04:20:39.658Z,100.00
2022-08-07T04:23:26.103Z,100.00
2022-08-07T04:26:21.981Z,100.00
2022-08-07T04:28:48.964Z,100.00
2022-08-07T04:31:19.672Z,100.00
2022-08-07T04:33:55.062Z,100.00
2022-08-07T04:39:12.846Z,100.00
2022-08-07T04:41:50.453Z,100.00
2022-08-07T04:44:20.994Z,100.00
2022-08-07T04:47:08.979Z,99.74
2022-08-07T04:50:14.377Z,98.92
2022-08-07T04:52:57.818Z,97.26
2022-08-07T04:58:14.421Z,96.15
2022-08-07T04:59:17.181Z,93.12
2022-08-07T05:01:50.523Z,89.07
2022-08-07T05:04:47.221Z,85.73
2022-08-07T05:07:30.493Z,84.15
2022-08-07T05:10:19.008Z,79.20
2022-08-07T05:14:44.640Z,77.57
2022-08-07T05:15:55.947Z,75.18
2022-08-07T05:18:38.821Z,76.24
2022-08-07T05:21:12.326Z,76.37
2022-08-07T05:26:10.505Z,75.85
2022-08-07T05:28:30.187Z,75.61
2022-08-07T05:31:07.774Z,75.37
2022-08-07T05:34:10.752Z,75.90
2022-08-07T05:36:40.806Z,72.44
2022-08-07T05:40:16.797Z,64.12
2022-08-07T05:42:16.172Z,59.99
2022-08-07T05:45:14.424Z,54.50
2022-08-07T05:48:02.460Z,51.94
2022-08-07T05:50:39.338Z,50.86
2022-08-07T05:54:13.135Z,50.96
2022-08-07T05:56:31.427Z,48.71
2022-08-07T05:59:02.154Z,44.31
2022-08-07T06:01:35.945Z,44.30
2022-08-07T06:04:04.296Z,42.77
2022-08-07T06:09:18.593Z,41.85
2022-08-07T06:12:27.953Z,41.33
2022-08-07T06:15:20.052Z,40.46
2022-08-07T06:18:10.658Z,38.42
2022-08-07T06:20:50.955Z,37.52
2022-08-07T06:24:37.509Z,36.07
2022-08-07T06:26:52.487Z,34.88
2022-08-07T06:29:27.544Z,35.10
2022-08-07T06:31:59.469Z,33.75
2022-08-07T06:34:33.101Z,33.52
2022-08-07T06:37:02.574Z,31.79
2022-08-07T06:40:16.506Z,31.96
2022-08-07T06:42:33.203Z,31.33
2022-08-07T06:45:03.735Z,30.53
2022-08-07T06:47:30.830Z,30.24
2022-08-07T06:50:15.439Z,31.07
2022-08-07T06:52:52.979Z,32.34
2022-08-07T06:55:31.421Z,31.34
2022-08-07T06:58:10.215Z,30.81
2022-08-07T07:00:42.445Z,31.12
2022-08-07T07:03:18.488Z,31.67
2022-08-07T07:06:26.361Z,33.61
2022-08-07T07:08:53.367Z,35.03
2022-08-07T07:12:09.603Z,36.64
2022-08-07T07:17:16.122Z,39.42
2022-08-07T07:20:08.500Z,39.82
2022-08-07T07:24:08.870Z,40.29
2022-08-07T07:37:14.451Z,44.76
2022-08-07T07:39:54.379Z,42.88
2022-08-07T07:42:25.680Z,37.91
2022-08-07T07:44:59.879Z,35.06
2022-08-07T07:47:26.958Z,34.11
2022-08-07T07:50:34.693Z,30.27
2022-08-07T07:52:46.953Z,30.30
2022-08-07T07:55:17.832Z,31.60
2022-08-07T07:57:53.726Z,29.41
2022-08-07T08:00:29.620Z,29.58
2022-08-07T08:03:16.714Z,30.95
2022-08-07T08:05:58.754Z,28.43
2022-08-07T08:08:34.653Z,30.07
2022-08-07T08:11:13.630Z,30.71
2022-08-07T08:13:55.773Z,28.69
2022-08-07T08:16:40.312Z,27.19
2022-08-07T08:20:15.625Z,28.17
2022-08-07T08:22:17.900Z,28.00
2022-08-07T08:25:24.876Z,28.15
2022-08-07T08:27:56.236Z,26.92
2022-08-07T08:30:32.156Z,25.85
2022-08-07T08:33:03.434Z,27.29
2022-08-07T08:35:39.075Z,28.32
2022-08-07T08:38:13.151Z,28.60
2022-08-07T08:40:46.924Z,29.87
2022-08-07T08:43:42.482Z,30.28
2022-08-07T08:46:39.196Z,29.71
2022-08-07T08:49:33.282Z,31.89
2022-08-07T08:52:20.657Z,30.00
2022-08-07T08:55:07.730Z,30.48
2022-08-07T08:57:45.204Z,28.81
2022-08-07T09:00:13.083Z,28.37
2022-08-07T09:02:40.331Z,29.67
2022-08-07T09:05:36.728Z,28.83
2022-08-07T09:08:39.313Z,29.07
2022-08-07T09:11:24.528Z,27.82
2022-08-07T09:14:16.601Z,26.85
2022-08-07T09:16:47.608Z,27.69
2022-08-07T09:19:52.901Z,28.73
2022-08-07T09:24:30.716Z,28.81
2022-08-07T09:28:02.987Z,34.83
2022-08-07T09:30:44.186Z,36.82
2022-08-07T09:33:41.222Z,36.79
2022-08-07T09:36:18.511Z,37.04
2022-08-07T09:38:54.216Z,36.39
2022-08-07T09:41:58.683Z,34.05
2022-08-07T09:45:03.516Z,35.26
2022-08-07T09:47:52.195Z,35.26
2022-08-07T09:50:35.538Z,34.50
2022-08-07T09:53:05.887Z,31.38
2022-08-07T09:56:03.070Z,29.47
2022-08-07T09:58:42.171Z,32.02
2022-08-07T10:01:52.027Z,33.98
2022-08-07T10:04:46.051Z,36.03
2022-08-07T10:07:57.975Z,38.50
2022-08-07T10:11:59.168Z,35.98
2022-08-07T10:14:12.832Z,34.15
2022-08-07T10:17:16.486Z,36.18
2022-08-07T10:19:57.868Z,34.96
2022-08-07T10:23:02.540Z,34.95
2022-08-07T10:26:01.615Z,38.44
2022-08-07T10:29:04.059Z,38.13
2022-08-07T10:31:45.327Z,41.42
2022-08-07T10:34:37.429Z,41.21
2022-08-07T10:37:05.662Z,39.85
2022-08-07T10:40:03.508Z,42.82
2022-08-07T10:42:44.980Z,41.16
2022-08-07T10:45:44.026Z,40.46
2022-08-07T10:48:41.922Z,38.52
2022-08-07T10:51:39.235Z,40.14
2022-08-07T10:54:28.990Z,38.64
2022-08-07T10:57:13.808Z,40.46
2022-08-07T11:00:00.928Z,35.24
2022-08-07T11:02:56.672Z,37.44
2022-08-07T11:06:08.434Z,36.52
2022-08-07T11:09:03.957Z,34.94
2022-08-07T11:11:53.603Z,37.34
2022-08-07T11:14:46.136Z,37.87
2022-08-07T11:17:46.401Z,37.61
2022-08-07T11:20:41.357Z,32.52
2022-08-07T11:23:26.291Z,35.74
2022-08-07T11:29:40.928Z,34.53
2022-08-07T11:32:15.472Z,35.75
2022-08-07T11:34:58.780Z,35.77
2022-08-07T11:37:38.376Z,37.65
2022-08-07T11:40:32.073Z,41.42
2022-08-07T11:43:15.372Z,39.28
2022-08-07T11:45:50.038Z,40.41
2022-08-07T11:49:51.626Z,40.78
2022-08-07T11:52:18.835Z,36.49
2022-08-07T11:55:13.165Z,35.79
2022-08-07T11:58:16.778Z,39.16
2022-08-07T12:01:09.881Z,38.75
2022-08-07T12:03:57.253Z,37.43
2022-08-07T12:07:07.952Z,39.42
2022-08-07T12:09:53.995Z,41.63
2022-08-07T12:12:34.575Z,38.67
2022-08-07T12:15:46.398Z,39.89
2022-08-07T12:18:45.751Z,37.95
2022-08-07T12:22:37.310Z,36.04
2022-08-07T12:26:00.818Z,39.88
2022-08-07T12:28:11.991Z,37.67
2022-08-07T12:30:46.722Z,38.44
2022-08-07T12:33:31.058Z,42.06
2022-08-07T12:36:16.376Z,43.06
2022-08-07T12:38:47.474Z,42.16
2022-08-07T12:41:29.204Z,43.53
2022-08-07T12:44:17.102Z,42.28
2022-08-07T12:47:43.951Z,41.48
2022-08-07T12:50:40.319Z,38.88
2022-08-07T12:54:36.836Z,38.82
2022-08-07T12:56:40.055Z,40.87
2022-08-07T12:59:20.332Z,42.38
2022-08-07T13:02:57.681Z,42.94
2022-08-07T13:06:03.355Z,44.74
2022-08-07T13:10:21.617Z,41.73
2022-08-07T13:12:27.636Z,42.46
2022-08-07T13:15:59.552Z,41.73
2022-08-07T13:18:50.690Z,38.54
2022-08-07T13:21:50.331Z,40.54
2022-08-07T13:24:20.641Z,40.87
2022-08-07T13:40:36.607Z,43.52
2022-08-07T13:42:58.973Z,42.66
2022-08-07T13:46:16.406Z,43.17
2022-08-07T13:48:33.895Z,42.31
2022-08-07T13:51:27.533Z,41.99
2022-08-07T13:54:03.736Z,43.58
2022-08-07T13:56:35.942Z,39.85
2022-08-07T13:59:17.642Z,38.04
2022-08-07T14:02:10.467Z,40.79
2022-08-07T14:08:26.173Z,41.49
2022-08-07T14:11:17.343Z,41.76
2022-08-07T14:14:40.981Z,43.93
2022-08-07T14:18:12.949Z,40.11
2022-08-07T14:20:40.630Z,40.14
2022-08-07T14:23:17.949Z,41.30
2022-08-07T14:31:59.440Z,41.80
2022-08-07T14:34:55.116Z,42.93
2022-08-07T14:37:38.932Z,40.11
2022-08-07T14:40:27.608Z,40.75
2022-08-07T14:49:55.738Z,40.36
2022-08-07T14:52:10.592Z,41.49
2022-08-07T14:54:43.085Z,40.39
2022-08-07T14:57:24.576Z,40.82
2022-08-07T15:00:04.999Z,39.61
2022-08-07T15:02:39.695Z,41.43
2022-08-07T15:08:03.805Z,42.83
2022-08-07T15:10:32.051Z,41.34
2022-08-07T15:13:17.443Z,40.94
2022-08-07T15:16:33.528Z,41.76
2022-08-07T15:19:03.346Z,42.26
2022-08-07T15:31:04.922Z,41.93
2022-08-07T15:36:14.012Z,43.17
2022-08-07T15:39:12.399Z,42.91
2022-08-07T15:42:46.104Z,42.75
2022-08-07T15:48:00.833Z,41.82
2022-08-07T15:51:08.740Z,44.11
2022-08-07T15:53:56.101Z,44.39
2022-08-07T15:56:38.328Z,44.19
2022-08-07T15:59:17.303Z,43.88
2022-08-07T16:02:01.998Z,43.82
2022-08-07T16:04:32.305Z,44.26
2022-08-07T16:07:04.823Z,43.42
2022-08-07T16:09:52.110Z,43.63
2022-08-07T16:13:04.812Z,41.77
2022-08-07T16:16:03.472Z,41.36
2022-08-07T16:18:50.126Z,41.97
2022-08-07T16:22:01.162Z,43.79
2022-08-07T16:24:34.813Z,44.98
2022-08-07T16:27:20.923Z,46.09
2022-08-07T16:30:11.802Z,45.77
2022-08-07T16:32:54.298Z,46.18
2022-08-07T16:35:58.629Z,45.75
2022-08-07T16:39:03.696Z,44.25
2022-08-07T16:41:41.403Z,43.90
2022-08-07T16:44:53.667Z,45.15
2022-08-07T16:47:56.846Z,45.17
2022-08-07T16:51:20.499Z,45.54
2022-08-07T16:54:19.306Z,45.18
2022-08-07T16:57:15.383Z,46.48
2022-08-07T17:00:02.366Z,46.08
2022-08-07T17:02:55.227Z,46.22
2022-08-07T17:06:02.154Z,47.58
2022-08-07T17:09:10.664Z,47.63
2022-08-07T17:12:01.331Z,47.56
2022-08-07T17:14:46.678Z,49.04
2022-08-07T17:17:43.943Z,48.26
2022-08-07T17:20:41.754Z,49.78
2022-08-07T17:23:32.583Z,50.20
2022-08-07T17:26:35.835Z,51.73
2022-08-07T17:32:03.195Z,51.93
2022-08-07T17:34:57.119Z,52.28
2022-08-07T17:38:05.776Z,52.65
2022-08-07T17:40:39.825Z,52.72
2022-08-07T17:43:18.355Z,53.37
2022-08-07T17:45:54.849Z,53.57
2022-08-07T17:48:30.891Z,53.89
2022-08-07T17:51:21.207Z,54.39
2022-08-07T17:54:06.004Z,55.47
2022-08-07T17:56:36.097Z,57.56
2022-08-07T17:59:35.945Z,57.38
2022-08-07T18:02:14.739Z,57.19
2022-08-07T18:05:20.739Z,57.23
2022-08-07T18:08:24.477Z,58.50
2022-08-07T18:12:07.333Z,58.10
2022-08-07T18:14:31.755Z,58.58
2022-08-07T18:18:45.130Z,59.78
2022-08-07T18:21:05.868Z,59.93
2022-08-07T18:23:43.418Z,59.70
2022-08-07T18:26:18.325Z,59.22
2022-08-07T18:30:07.771Z,60.57
2022-08-07T18:32:35.399Z,60.43
2022-08-07T18:35:30.618Z,60.87
2022-08-07T18:38:58.724Z,60.87
2022-08-07T18:41:47.350Z,60.52
2022-08-07T18:45:39.719Z,60.50
2022-08-07T18:48:01.475Z,61.08
2022-08-07T18:50:46.589Z,60.34
2022-08-07T18:53:45.428Z,60.19
2022-08-07T18:56:34.835Z,60.80
2022-08-07T18:59:46.943Z,60.41
2022-08-07T19:02:32.518Z,60.27
2022-08-07T19:05:14.875Z,60.60
2022-08-07T19:08:03.969Z,60.52
2022-08-07T19:10:51.976Z,60.79
2022-08-07T19:13:44.251Z,60.62
2022-08-07T19:17:01.161Z,60.25
2022-08-07T19:19:41.956Z,60.24
2022-08-07T19:22:30.800Z,60.65
2022-08-07T19:25:05.499Z,60.47
2022-08-07T19:29:02.923Z,60.45
2022-08-07T19:32:44.872Z,60.95
2022-08-07T19:35:28.261Z,60.63
2022-08-07T19:38:03.487Z,61.38
2022-08-07T19:40:38.152Z,61.01
2022-08-07T19:43:49.561Z,61.38
2022-08-07T19:46:14.703Z,60.74
2022-08-07T19:48:56.041Z,61.03
2022-08-07T19:51:51.830Z,61.30
2022-08-07T19:54:34.578Z,60.41
2022-08-07T19:58:03.554Z,60.74
2022-08-07T19:59:58.447Z,60.56
2022-08-07T20:02:52.330Z,60.03
2022-08-07T20:05:28.171Z,60.29
2022-08-07T20:08:05.239Z,59.98
2022-08-07T20:10:54.431Z,59.69
2022-08-07T20:13:51.163Z,59.65
2022-08-07T20:16:35.021Z,59.31
2022-08-07T20:19:10.489Z,59.85
2022-08-07T20:21:41.679Z,59.54
2022-08-07T20:24:18.657Z,60.07
2022-08-07T20:26:52.152Z,60.19
2022-08-07T20:29:49.210Z,60.89
2022-08-07T20:32:22.290Z,60.61
2022-08-07T20:34:51.740Z,60.60
2022-08-07T20:37:58.888Z,61.01
2022-08-07T20:40:32.984Z,61.34
2022-08-07T20:43:03.218Z,61.25
2022-08-07T20:46:25.873Z,61.22
2022-08-07T20:48:29.875Z,61.96
2022-08-07T20:51:02.537Z,62.45
2022-08-07T20:54:04.785Z,62.45
2022-08-07T20:56:26.360Z,62.03
2022-08-07T20:58:58.675Z,62.27
2022-08-07T21:01:36.356Z,61.77
2022-08-07T21:04:21.863Z,62.24
2022-08-07T21:06:53.458Z,61.92
2022-08-07T21:09:24.401Z,62.16
2022-08-07T21:11:57.799Z,62.17
2022-08-07T21:14:34.555Z,62.52
2022-08-07T21:18:20.782Z,62.28
2022-08-07T21:20:04.620Z,62.11
2022-08-07T21:22:44.740Z,62.28
2022-08-07T21:25:20.971Z,64.68
2022-08-07T21:28:04.500Z,66.35
2022-08-07T21:33:41.718Z,69.99
2022-08-07T21:36:36.285Z,70.62
2022-08-07T21:39:48.597Z,72.05
2022-08-07T21:42:42.675Z,73.00
2022-08-07T21:46:05.267Z,73.63
2022-08-07T21:48:29.177Z,74.74
2022-08-07T21:51:25.197Z,75.52
2022-08-07T21:53:59.714Z,76.55
2022-08-07T21:56:49.199Z,76.91
2022-08-07T22:00:02.877Z,77.74
2022-08-07T22:02:28.043Z,77.81
2022-08-07T22:05:01.320Z,77.81
2022-08-07T22:07:57.790Z,78.14
2022-08-07T22:10:26.093Z,78.35
2022-08-07T22:12:59.739Z,78.19
2022-08-07T22:16:44.356Z,77.67
2022-08-07T22:19:01.028Z,77.44
2022-08-07T22:22:04.999Z,78.73
2022-08-07T22:24:44.334Z,79.14
2022-08-07T22:27:21.104Z,79.71
2022-08-07T22:30:16.225Z,81.15
2022-08-07T22:32:59.907Z,81.30
2022-08-07T22:35:39.415Z,81.72
2022-08-07T22:38:31.883Z,82.11
2022-08-07T22:41:07.610Z,82.28
2022-08-07T22:43:56.122Z,81.25
2022-08-07T22:47:03.780Z,81.86
2022-08-07T22:49:54.381Z,80.81
2022-08-07T22:52:37.426Z,80.14
2022-08-07T22:55:22.714Z,77.52
2022-08-07T22:58:10.386Z,77.52
2022-08-07T23:00:50.381Z,77.46
2022-08-07T23:03:59.050Z,78.20
2022-08-07T23:06:56.228Z,78.95
2022-08-07T23:10:04.111Z,80.27
2022-08-07T23:12:45.826Z,80.92
2022-08-07T23:16:06.592Z,82.09
2022-08-07T23:18:32.071Z,82.65
2022-08-07T23:21:10.752Z,83.10
2022-08-07T23:24:06.427Z,83.26
2022-08-07T23:27:06.292Z,83.22
2022-08-07T23:30:37.207Z,83.51
2022-08-07T23:35:16.792Z,83.20
2022-08-07T23:38:04.000Z,83.91
2022-08-07T23:41:02.965Z,84.28
2022-08-07T23:43:55.416Z,84.64
2022-08-07T23:46:56.620Z,84.58
2022-08-07T23:49:50.201Z,85.04
2022-08-07T23:53:01.318Z,85.62
2022-08-07T23:55:52.353Z,86.06
2022-08-07T23:58:51.005Z,86.84
